Time;durP1;ratioP1;P1;durP2;ratioP2;P2;SDS_P1;SDS_P2;PMS_P1;PMS_P2;Temp;Humidity;BMP_temperature;BMP_pressure;BME280_temperature;BME280_humidity;BME280_pressure;Samples;Min_cycle;Max_cycle;Signal;HPM_P1;HPM_P2
2024/02/18 00:00:36;;;;;;;15.20;6.82;;;;;;;;;;4989507;28;20186;-93
2024/02/18 00:03:41;;;;;;;10.57;5.35;;;;;;;;;;4989038;28;20218;-93
2024/02/18 00:06:46;;;;;;;14.25;5.70;;;;;;;;;;4989066;28;20217;-92
2024/02/18 00:09:53;;;;;;;11.55;5.60;;;;;;;;;;4986616;28;20181;-91
2024/02/18 00:12:59;;;;;;;17.10;6.20;;;;;;;;;;4988374;28;20220;-93
2024/02/18 00:16:04;;;;;;;11.43;5.75;;;;;;;;;;4986588;28;20209;-91
2024/02/18 00:19:09;;;;;;;10.50;5.00;;;;;;;;;;4988012;28;20178;-92
2024/02/18 00:22:14;;;;;;;9.00;5.05;;;;;;;;;;4988327;28;20178;-92
2024/02/18 00:25:20;;;;;;;8.73;4.95;;;;;;;;;;4987970;28;20194;-92
2024/02/18 00:28:27;;;;;;;19.77;8.55;;;;;;;;;;4988182;28;20213;-92
2024/02/18 00:31:32;;;;;;;11.00;5.78;;;;;;;;;;4987487;28;20197;-90
2024/02/18 00:34:37;;;;;;;9.73;5.13;;;;;;;;;;4968586;28;20269;-93
2024/02/18 00:37:42;;;;;;;8.38;4.60;;;;;;;;;;4968233;28;20310;-91
2024/02/18 00:40:48;;;;;;;15.02;5.35;;;;;;;;;;4970600;28;20190;-92
2024/02/18 00:43:54;;;;;;;9.52;4.75;;;;;;;;;;4968146;28;20218;-90
2024/02/18 00:47:00;;;;;;;15.82;6.63;;;;;;;;;;4967938;28;20268;-90
2024/02/18 00:50:06;;;;;;;9.90;5.50;;;;;;;;;;4971750;28;20194;-91
2024/02/18 00:53:13;;;;;;;14.77;5.57;;;;;;;;;;4967996;28;20333;-91
2024/02/18 00:56:21;;;;;;;8.68;4.97;;;;;;;;;;4970126;28;20276;-93
2024/02/18 00:59:28;;;;;;;7.40;4.47;;;;;;;;;;4967778;28;20247;-91
2024/02/18 01:02:34;;;;;;;7.22;4.15;;;;;;;;;;4945522;28;20256;-89
2024/02/18 01:05:39;;;;;;;16.60;6.20;;;;;;;;;;4967484;28;20242;-91
2024/02/18 01:08:44;;;;;;;13.60;5.72;;;;;;;;;;4966319;28;20677;-91
2024/02/18 01:11:50;;;;;;;11.57;5.65;;;;;;;;;;4967752;28;20190;-92
2024/02/18 01:14:57;;;;;;;12.80;5.45;;;;;;;;;;4965363;28;20265;-91
2024/02/18 01:18:03;;;;;;;11.25;4.85;;;;;;;;;;4969395;28;20206;-90
2024/02/18 01:21:08;;;;;;;10.70;5.03;;;;;;;;;;4972779;28;20194;-89
2024/02/18 01:24:14;;;;;;;8.25;5.13;;;;;;;;;;4968702;28;20734;-91
2024/02/18 01:27:20;;;;;;;10.55;4.65;;;;;;;;;;4968558;29;20206;-91
2024/02/18 01:30:27;;;;;;;8.60;5.30;;;;;;;;;;4967055;28;20255;-92
2024/02/18 01:33:32;;;;;;;10.52;5.25;;;;;;;;;;4968080;28;20230;-91
2024/02/18 01:36:37;;;;;;;9.40;5.07;;;;;;;;;;4969050;28;20190;-90
2024/02/18 01:39:42;;;;;;;10.02;5.13;;;;;;;;;;4969413;28;20274;-94
2024/02/18 01:42:47;;;;;;;9.13;4.75;;;;;;;;;;4966748;28;20740;-92
2024/02/18 01:45:54;;;;;;;13.85;5.65;;;;;;;;;;4967757;28;20186;-92
2024/02/18 01:48:59;;;;;;;13.55;5.20;;;;;;;;;;4967175;28;20199;-90
2024/02/18 01:52:05;;;;;;;9.30;5.05;;;;;;;;;;4965899;28;20190;-94
2024/02/18 01:55:10;;;;;;;9.40;5.28;;;;;;;;;;4964004;29;20308;-93
2024/02/18 01:58:15;;;;;;;9.85;5.28;;;;;;;;;;4963908;29;20288;-88
2024/02/18 02:01:21;;;;;;;7.68;4.50;;;;;;;;;;4964451;29;20234;-92
2024/02/18 02:04:27;;;;;;;10.80;5.10;;;;;;;;;;4963888;29;20202;-91
2024/02/18 02:07:31;;;;;;;10.07;5.03;;;;;;;;;;4963861;28;20213;-90
2024/02/18 02:10:36;;;;;;;11.77;5.30;;;;;;;;;;4963865;29;20274;-93
2024/02/18 02:13:42;;;;;;;9.85;4.78;;;;;;;;;;4962639;29;20214;-92
2024/02/18 02:16:49;;;;;;;14.57;4.97;;;;;;;;;;4963318;28;20190;-93
2024/02/18 02:19:54;;;;;;;8.15;4.75;;;;;;;;;;4963624;29;20195;-91
2024/02/18 02:22:59;;;;;;;13.65;5.25;;;;;;;;;;4964294;29;20210;-93
2024/02/18 02:26:04;;;;;;;11.85;4.97;;;;;;;;;;4963538;29;20187;-90
2024/02/18 02:29:12;;;;;;;13.70;5.35;;;;;;;;;;4962510;29;20210;-92
2024/02/18 02:32:19;;;;;;;13.10;5.60;;;;;;;;;;4963647;29;20256;-91
2024/02/18 02:35:28;;;;;;;10.27;5.28;;;;;;;;;;4963923;29;20237;-90
2024/02/18 02:38:35;;;;;;;14.77;5.75;;;;;;;;;;4964034;29;20202;-90
2024/02/18 02:41:40;;;;;;;8.85;4.93;;;;;;;;;;4963772;29;20217;-90
2024/02/18 02:44:46;;;;;;;12.90;5.07;;;;;;;;;;4963245;29;20194;-92
2024/02/18 02:47:52;;;;;;;11.40;5.65;;;;;;;;;;4963109;28;20195;-93
2024/02/18 02:50:57;;;;;;;12.40;5.32;;;;;;;;;;4964528;29;20182;-90
2024/02/18 02:54:02;;;;;;;11.60;5.80;;;;;;;;;;4963597;29;20291;-89
2024/02/18 02:57:07;;;;;;;12.30;5.18;;;;;;;;;;4963645;28;20667;-90
2024/02/18 03:00:14;;;;;;;11.05;5.13;;;;;;;;;;4963153;29;20651;-90
2024/02/18 03:03:19;;;;;;;10.18;5.30;;;;;;;;;;4963652;28;20685;-91
2024/02/18 03:06:26;;;;;;;12.95;5.20;;;;;;;;;;4963478;28;20195;-88
2024/02/18 03:09:31;;;;;;;10.80;5.40;;;;;;;;;;4963413;29;20195;-91
2024/02/18 03:12:36;;;;;;;14.00;5.50;;;;;;;;;;4964006;29;20193;-92
2024/02/18 03:15:43;;;;;;;11.05;5.60;;;;;;;;;;4963541;28;20226;-91
2024/02/18 03:18:48;;;;;;;9.20;4.95;;;;;;;;;;4965857;28;20234;-89
2024/02/18 03:21:54;;;;;;;13.23;5.50;;;;;;;;;;4968085;29;20189;-91
2024/02/18 03:24:59;;;;;;;11.13;5.45;;;;;;;;;;4966952;29;20210;-93
2024/02/18 03:28:05;;;;;;;14.88;6.60;;;;;;;;;;4968233;29;20194;-92
2024/02/18 03:31:18;;;;;;;15.20;6.55;;;;;;;;;;4967239;28;20271;-91
2024/02/18 03:34:24;;;;;;;15.27;6.85;;;;;;;;;;4966466;29;20218;-89
2024/02/18 03:37:29;;;;;;;12.40;6.45;;;;;;;;;;4967184;29;20268;-91
2024/02/18 03:40:33;;;;;;;12.63;5.95;;;;;;;;;;4965268;28;20331;-92
2024/02/18 03:43:39;;;;;;;37.67;13.90;;;;;;;;;;4966193;29;20210;-91
2024/02/18 03:46:46;;;;;;;20.33;8.15;;;;;;;;;;4965239;29;20383;-90
2024/02/18 03:49:51;;;;;;;11.52;5.35;;;;;;;;;;4964332;28;20190;-90
2024/02/18 03:52:56;;;;;;;11.73;5.83;;;;;;;;;;4966492;29;20198;-91
2024/02/18 03:56:02;;;;;;;13.27;6.20;;;;;;;;;;4966101;29;20187;-91
2024/02/18 03:59:08;;;;;;;11.27;5.63;;;;;;;;;;4965955;28;20194;-90
2024/02/18 04:02:14;;;;;;;13.47;6.30;;;;;;;;;;4966572;29;20691;-91
2024/02/18 04:05:20;;;;;;;13.80;6.40;;;;;;;;;;4965422;29;20187;-92
2024/02/18 04:08:25;;;;;;;18.73;6.57;;;;;;;;;;4966973;29;20206;-90
2024/02/18 04:11:30;;;;;;;17.70;6.43;;;;;;;;;;4966298;29;20662;-91
2024/02/18 04:14:35;;;;;;;13.90;6.88;;;;;;;;;;4965338;29;20218;-90
2024/02/18 04:17:41;;;;;;;15.60;7.00;;;;;;;;;;4967457;29;20663;-91
2024/02/18 04:20:47;;;;;;;16.75;7.05;;;;;;;;;;4966974;29;20190;-91
2024/02/18 04:23:52;;;;;;;12.07;6.60;;;;;;;;;;4966728;29;20202;-93
2024/02/18 04:26:58;;;;;;;17.92;7.00;;;;;;;;;;4967435;29;20189;-90
2024/02/18 04:30:03;;;;;;;13.03;6.53;;;;;;;;;;4964929;28;20191;-92
2024/02/18 04:33:09;;;;;;;13.37;6.73;;;;;;;;;;4966463;29;20252;-92
2024/02/18 04:36:14;;;;;;;17.40;7.27;;;;;;;;;;4965979;29;20709;-92
2024/02/18 04:39:19;;;;;;;26.48;7.97;;;;;;;;;;4965325;29;20191;-89
2024/02/18 04:42:24;;;;;;;69.40;9.45;;;;;;;;;;4966550;29;20287;-90
2024/02/18 04:45:29;;;;;;;65.70;9.27;;;;;;;;;;4967013;29;20680;-92
2024/02/18 04:48:37;;;;;;;105.30;9.50;;;;;;;;;;4966561;29;20190;-91
2024/02/18 04:51:43;;;;;;;44.08;7.60;;;;;;;;;;4965127;28;20678;-94
2024/02/18 04:54:48;;;;;;;64.47;8.57;;;;;;;;;;4964550;29;20213;-91
2024/02/18 04:57:54;;;;;;;17.93;7.33;;;;;;;;;;4966337;29;20199;-93
2024/02/18 05:00:59;;;;;;;16.23;7.50;;;;;;;;;;4966326;29;20187;-91
2024/02/18 05:04:06;;;;;;;23.27;8.25;;;;;;;;;;4964956;28;20190;-91
2024/02/18 05:07:11;;;;;;;16.25;7.22;;;;;;;;;;4964739;29;20250;-92
2024/02/18 05:10:16;;;;;;;36.30;8.48;;;;;;;;;;4964281;29;20672;-92
2024/02/18 05:13:21;;;;;;;30.15;9.00;;;;;;;;;;4965281;29;20186;-91
2024/02/18 05:16:26;;;;;;;41.85;8.90;;;;;;;;;;4966056;28;20194;-92
2024/02/18 05:19:33;;;;;;;19.70;8.32;;;;;;;;;;4963604;29;20596;-91
2024/02/18 05:22:41;;;;;;;65.67;9.07;;;;;;;;;;4965100;28;20194;-90
2024/02/18 05:25:47;;;;;;;29.48;8.80;;;;;;;;;;4964721;29;20333;-91
2024/02/18 05:28:51;;;;;;;29.10;8.87;;;;;;;;;;4963847;29;20314;-91
2024/02/18 05:31:57;;;;;;;38.70;9.93;;;;;;;;;;4964900;28;20215;-91
2024/02/18 05:35:03;;;;;;;31.42;8.02;;;;;;;;;;4966581;29;20221;-91
2024/02/18 05:38:08;;;;;;;25.83;7.90;;;;;;;;;;4966446;29;20213;-89
2024/02/18 05:41:13;;;;;;;30.50;8.05;;;;;;;;;;4964177;28;20238;-92
2024/02/18 05:44:18;;;;;;;47.60;9.23;;;;;;;;;;4964079;29;20202;-92
2024/02/18 05:47:23;;;;;;;42.07;7.83;;;;;;;;;;4965906;29;20186;-93
2024/02/18 05:50:30;;;;;;;47.93;8.60;;;;;;;;;;4963410;29;20199;-91
2024/02/18 05:53:35;;;;;;;43.80;10.13;;;;;;;;;;4962255;29;20179;-93
2024/02/18 05:56:40;;;;;;;62.03;11.30;;;;;;;;;;4964201;29;20194;-92
2024/02/18 05:59:45;;;;;;;53.70;10.60;;;;;;;;;;4962345;29;20210;-91
2024/02/18 06:02:50;;;;;;;61.27;10.17;;;;;;;;;;4963682;29;20256;-91
2024/02/18 06:05:57;;;;;;;56.83;10.80;;;;;;;;;;4963659;29;20179;-92
2024/02/18 06:09:02;;;;;;;47.67;11.00;;;;;;;;;;4962397;29;20206;-93
2024/02/18 06:12:08;;;;;;;39.27;9.83;;;;;;;;;;4963636;29;20206;-90
2024/02/18 06:15:13;;;;;;;40.37;10.27;;;;;;;;;;4963938;29;20217;-90
2024/02/18 06:18:18;;;;;;;36.37;11.67;;;;;;;;;;4963481;28;20190;-91
2024/02/18 06:21:25;;;;;;;51.33;10.23;;;;;;;;;;4963982;29;20194;-92
2024/02/18 06:24:30;;;;;;;51.33;11.27;;;;;;;;;;4962942;29;20199;-91
2024/02/18 06:27:35;;;;;;;71.30;11.43;;;;;;;;;;4962482;29;20566;-90
2024/02/18 06:30:41;;;;;;;39.53;10.88;;;;;;;;;;4962396;29;20222;-92
2024/02/18 06:33:46;;;;;;;40.72;10.50;;;;;;;;;;4962835;29;20198;-92
2024/02/18 06:36:53;;;;;;;54.75;11.13;;;;;;;;;;4965535;29;20227;-93
2024/02/18 06:39:58;;;;;;;38.53;11.98;;;;;;;;;;4964663;29;20344;-93
2024/02/18 06:43:03;;;;;;;34.63;10.27;;;;;;;;;;4964074;28;20222;-89
2024/02/18 06:46:08;;;;;;;27.90;10.82;;;;;;;;;;4963785;29;20697;-91
2024/02/18 06:49:13;;;;;;;41.72;11.00;;;;;;;;;;4963634;29;20198;-91
2024/02/18 06:52:21;;;;;;;28.37;10.10;;;;;;;;;;4964943;28;20190;-92
2024/02/18 06:55:26;;;;;;;22.10;9.90;;;;;;;;;;4968070;29;20218;-92
2024/02/18 06:58:31;;;;;;;23.70;10.55;;;;;;;;;;4968522;29;20222;-91
2024/02/18 07:01:36;;;;;;;26.10;9.97;;;;;;;;;;4967417;29;20199;-90
2024/02/18 07:04:41;;;;;;;22.77;10.03;;;;;;;;;;4965212;29;20194;-90
2024/02/18 07:07:48;;;;;;;19.27;9.85;;;;;;;;;;4966974;29;20660;-90
2024/02/18 07:10:53;;;;;;;19.73;9.93;;;;;;;;;;4968116;29;20554;-92
2024/02/18 07:13:58;;;;;;;22.70;9.85;;;;;;;;;;4969748;29;20198;-90
2024/02/18 07:17:04;;;;;;;19.25;9.05;;;;;;;;;;4971990;29;20190;-90
2024/02/18 07:20:13;;;;;;;19.60;9.07;;;;;;;;;;5007766;28;20197;-92
2024/02/18 07:23:20;;;;;;;19.38;9.27;;;;;;;;;;5012004;28;20189;-90
2024/02/18 07:26:27;;;;;;;24.33;11.03;;;;;;;;;;4991948;28;20198;-91
2024/02/18 07:29:32;;;;;;;21.70;9.93;;;;;;;;;;4991587;28;20194;-93
2024/02/18 07:32:37;;;;;;;20.67;10.77;;;;;;;;;;4987950;28;20261;-91
2024/02/18 07:35:43;;;;;;;23.80;11.48;;;;;;;;;;4989833;28;20250;-91
2024/02/18 07:38:51;;;;;;;28.88;12.70;;;;;;;;;;4990171;28;20197;-91
2024/02/18 07:41:56;;;;;;;27.95;12.52;;;;;;;;;;4989214;28;20194;-92
2024/02/18 07:45:02;;;;;;;26.52;12.25;;;;;;;;;;4989704;28;20669;-92
2024/02/18 07:48:07;;;;;;;23.75;11.52;;;;;;;;;;4990002;28;20209;-92
2024/02/18 07:51:12;;;;;;;16.65;8.13;;;;;;;;;;4989216;28;20178;-91
2024/02/18 07:54:19;;;;;;;18.20;8.68;;;;;;;;;;4988932;28;20189;-89
2024/02/18 07:57:24;;;;;;;16.83;8.23;;;;;;;;;;4989519;28;20777;-93
2024/02/18 08:00:29;;;;;;;17.92;8.30;;;;;;;;;;4988332;28;20310;-91
2024/02/18 08:03:35;;;;;;;15.93;7.88;;;;;;;;;;4987668;28;20204;-91
2024/02/18 08:06:40;;;;;;;17.77;8.10;;;;;;;;;;4999597;28;20724;-92
2024/02/18 08:09:47;;;;;;;19.00;9.35;;;;;;;;;;4989083;28;20313;-91
2024/02/18 08:12:52;;;;;;;18.92;9.90;;;;;;;;;;4988206;28;20197;-92
2024/02/18 08:15:58;;;;;;;17.95;9.18;;;;;;;;;;4987834;28;20213;-93
2024/02/18 08:19:03;;;;;;;23.95;9.23;;;;;;;;;;4987861;28;20185;-90
2024/02/18 08:22:08;;;;;;;17.95;8.85;;;;;;;;;;4988957;28;20193;-93
2024/02/18 08:25:15;;;;;;;17.30;9.32;;;;;;;;;;4987424;28;20190;-91
2024/02/18 08:28:20;;;;;;;27.52;13.32;;;;;;;;;;4987764;28;20178;-90
2024/02/18 08:31:25;;;;;;;19.98;10.20;;;;;;;;;;4990155;28;20206;-91
2024/02/18 08:34:31;;;;;;;22.38;10.40;;;;;;;;;;4990525;28;20194;-90
2024/02/18 08:37:36;;;;;;;22.65;10.55;;;;;;;;;;4988961;28;20205;-92
2024/02/18 08:40:43;;;;;;;20.05;10.70;;;;;;;;;;4988242;28;20289;-93
2024/02/18 08:43:52;;;;;;;19.88;10.10;;;;;;;;;;4988706;28;20246;-93
2024/02/18 08:46:58;;;;;;;20.63;11.15;;;;;;;;;;4999715;28;20295;-91
2024/02/18 08:50:04;;;;;;;22.50;11.50;;;;;;;;;;5000807;28;20669;-91
2024/02/18 08:53:09;;;;;;;20.92;10.75;;;;;;;;;;5000463;28;20269;-91
2024/02/18 08:56:20;;;;;;;20.80;10.45;;;;;;;;;;5007827;28;20275;-90
2024/02/18 08:59:25;;;;;;;16.55;9.55;;;;;;;;;;5008312;28;20193;-91
2024/02/18 09:02:30;;;;;;;18.05;9.43;;;;;;;;;;5008103;28;20181;-92
2024/02/18 09:05:35;;;;;;;16.00;9.07;;;;;;;;;;5008304;28;20201;-91
2024/02/18 09:08:47;;;;;;;19.52;10.75;;;;;;;;;;5009808;28;20193;-92
2024/02/18 09:11:59;;;;;;;19.60;10.65;;;;;;;;;;5007294;28;20190;-92
2024/02/18 09:15:10;;;;;;;15.85;9.93;;;;;;;;;;5007317;28;20197;-90
2024/02/18 09:18:17;;;;;;;19.73;11.23;;;;;;;;;;5007849;28;20328;-91
2024/02/18 09:21:22;;;;;;;20.63;11.10;;;;;;;;;;5010767;28;20189;-93
2024/02/18 09:24:27;;;;;;;19.92;11.15;;;;;;;;;;4984746;28;20217;-91
2024/02/18 09:27:35;;;;;;;19.20;10.65;;;;;;;;;;4969215;28;20253;-90
2024/02/18 09:30:41;;;;;;;18.15;10.63;;;;;;;;;;5003226;28;20193;-93
2024/02/18 09:33:47;;;;;;;20.17;11.57;;;;;;;;;;5010205;28;20217;-91
2024/02/18 09:36:52;;;;;;;20.25;11.65;;;;;;;;;;5006248;28;20212;-93
2024/02/18 09:39:58;;;;;;;19.58;11.15;;;;;;;;;;5010980;28;20201;-92
2024/02/18 09:43:06;;;;;;;20.30;10.40;;;;;;;;;;5009690;28;20225;-90
2024/02/18 09:46:13;;;;;;;19.00;10.38;;;;;;;;;;5008297;28;20189;-91
2024/02/18 09:49:19;;;;;;;19.35;10.75;;;;;;;;;;5009032;28;20197;-92
2024/02/18 09:52:27;;;;;;;20.35;10.80;;;;;;;;;;5012348;28;20333;-91
2024/02/18 09:55:32;;;;;;;20.38;10.45;;;;;;;;;;5009258;28;20244;-91
2024/02/18 09:58:39;;;;;;;20.33;10.68;;;;;;;;;;5007918;28;20209;-91
2024/02/18 10:01:49;;;;;;;19.15;10.82;;;;;;;;;;5006276;28;20189;-90
2024/02/18 10:04:54;;;;;;;19.17;9.77;;;;;;;;;;5005801;28;20687;-92
2024/02/18 10:08:03;;;;;;;18.35;10.32;;;;;;;;;;5008534;28;20189;-92
2024/02/18 10:11:08;;;;;;;23.15;12.10;;;;;;;;;;5008885;28;20201;-93
2024/02/18 10:14:16;;;;;;;20.42;10.85;;;;;;;;;;5006968;28;20818;-92
2024/02/18 10:17:24;;;;;;;18.83;10.23;;;;;;;;;;5010195;28;20225;-91
2024/02/18 10:20:30;;;;;;;15.93;9.10;;;;;;;;;;5008913;28;20188;-92
2024/02/18 10:23:39;;;;;;;18.52;9.88;;;;;;;;;;5010163;28;20189;-90
2024/02/18 10:26:45;;;;;;;22.20;10.40;;;;;;;;;;5003511;28;20259;-91
2024/02/18 10:29:53;;;;;;;23.17;10.48;;;;;;;;;;4999554;28;20197;-92
2024/02/18 10:33:00;;;;;;;18.98;9.13;;;;;;;;;;5009685;28;20221;-91
2024/02/18 10:36:08;;;;;;;19.90;9.93;;;;;;;;;;5009842;28;20225;-92
2024/02/18 10:39:16;;;;;;;16.65;8.88;;;;;;;;;;5007966;28;20313;-92
2024/02/18 10:42:23;;;;;;;18.25;8.70;;;;;;;;;;5008909;28;20220;-91
2024/02/18 10:45:31;;;;;;;17.60;8.80;;;;;;;;;;5010436;28;20188;-91
2024/02/18 10:48:38;;;;;;;17.27;8.43;;;;;;;;;;5008670;28;20184;-90
2024/02/18 10:51:46;;;;;;;20.70;7.60;;;;;;;;;;5008161;28;20193;-93
2024/02/18 10:54:56;;;;;;;13.52;7.30;;;;;;;;;;5008341;28;20176;-93
2024/02/18 10:58:02;;;;;;;16.70;6.90;;;;;;;;;;5010074;28;20193;-92
2024/02/18 11:01:14;;;;;;;11.77;6.45;;;;;;;;;;5008766;28;20189;-93
2024/02/18 11:04:19;;;;;;;13.00;6.47;;;;;;;;;;5008565;28;20217;-92
2024/02/18 11:07:26;;;;;;;10.55;6.15;;;;;;;;;;5007155;28;20192;-93
2024/02/18 11:10:32;;;;;;;12.52;6.07;;;;;;;;;;5007624;28;20212;-92
2024/02/18 11:13:39;;;;;;;11.18;6.30;;;;;;;;;;5008128;28;20205;-92
2024/02/18 11:16:46;;;;;;;13.88;6.47;;;;;;;;;;5007413;28;20341;-92
2024/02/18 11:19:52;;;;;;;13.75;6.05;;;;;;;;;;5007532;28;20205;-93
2024/02/18 11:22:58;;;;;;;11.43;5.10;;;;;;;;;;5008279;28;20181;-91
2024/02/18 11:26:03;;;;;;;12.55;4.93;;;;;;;;;;5007402;28;20197;-92
2024/02/18 11:29:09;;;;;;;7.88;4.25;;;;;;;;;;5007775;28;20274;-92
2024/02/18 11:32:16;;;;;;;9.00;4.50;;;;;;;;;;5006112;28;20181;-92
2024/02/18 11:35:22;;;;;;;6.40;3.65;;;;;;;;;;5007203;28;20258;-93
2024/02/18 11:38:29;;;;;;;6.07;3.33;;;;;;;;;;5006783;28;20184;-93
2024/02/18 11:41:36;;;;;;;5.80;3.30;;;;;;;;;;5011211;28;20193;-93
2024/02/18 11:44:44;;;;;;;7.32;3.92;;;;;;;;;;5010857;28;20309;-93
2024/02/18 11:47:51;;;;;;;7.65;3.50;;;;;;;;;;5010181;28;20302;-91
2024/02/18 11:50:57;;;;;;;6.22;2.83;;;;;;;;;;5011450;28;20197;-94
2024/02/18 11:54:03;;;;;;;5.30;3.00;;;;;;;;;;5010064;28;20185;-93
2024/02/18 11:57:09;;;;;;;6.10;3.22;;;;;;;;;;5009827;28;20229;-93
2024/02/18 12:00:16;;;;;;;4.15;2.67;;;;;;;;;;5010707;28;20313;-92
2024/02/18 12:03:24;;;;;;;6.55;2.78;;;;;;;;;;5008752;28;20201;-94
2024/02/18 12:06:31;;;;;;;3.88;2.42;;;;;;;;;;5010414;28;20185;-91
2024/02/18 12:09:37;;;;;;;6.22;2.67;;;;;;;;;;5010957;28;20262;-93
2024/02/18 12:12:43;;;;;;;5.30;1.90;;;;;;;;;;5008192;28;20563;-91
2024/02/18 12:15:49;;;;;;;3.97;1.48;;;;;;;;;;5008928;28;20204;-92
2024/02/18 12:18:57;;;;;;;2.55;1.67;;;;;;;;;;5009730;28;20189;-92
2024/02/18 12:22:03;;;;;;;2.95;1.60;;;;;;;;;;5008006;28;20200;-92
2024/02/18 12:25:09;;;;;;;4.20;1.33;;;;;;;;;;5010776;28;20245;-94
2024/02/18 12:28:15;;;;;;;2.45;1.67;;;;;;;;;;5009929;28;20197;-92
2024/02/18 12:31:21;;;;;;;2.47;1.00;;;;;;;;;;5009730;28;20177;-93
2024/02/18 12:34:29;;;;;;;1.50;1.10;;;;;;;;;;5010039;28;20180;-91
2024/02/18 12:37:39;;;;;;;2.55;0.95;;;;;;;;;;5009624;28;20221;-91
2024/02/18 12:40:45;;;;;;;4.63;1.80;;;;;;;;;;5009458;28;20565;-92
2024/02/18 12:43:54;;;;;;;3.20;1.90;;;;;;;;;;5009544;28;20614;-91
2024/02/18 12:47:01;;;;;;;4.57;2.35;;;;;;;;;;5008685;28;20197;-91
2024/02/18 12:50:08;;;;;;;3.42;2.10;;;;;;;;;;5009386;28;20186;-92
2024/02/18 12:53:14;;;;;;;2.95;1.63;;;;;;;;;;5011070;28;20189;-92
2024/02/18 12:56:20;;;;;;;5.00;1.67;;;;;;;;;;5009668;28;20208;-93
2024/02/18 12:59:25;;;;;;;3.25;1.83;;;;;;;;;;5009983;28;20189;-91
2024/02/18 13:02:32;;;;;;;4.40;1.92;;;;;;;;;;5010481;28;20181;-92
2024/02/18 13:05:41;;;;;;;2.63;1.80;;;;;;;;;;5009007;28;20197;-93
2024/02/18 13:08:52;;;;;;;6.57;2.00;;;;;;;;;;5012062;28;20274;-92
2024/02/18 13:11:57;;;;;;;2.65;1.65;;;;;;;;;;5010741;28;20182;-92
2024/02/18 13:15:04;;;;;;;5.13;2.00;;;;;;;;;;5010230;28;20181;-91
2024/02/18 13:18:09;;;;;;;7.18;1.90;;;;;;;;;;5008933;28;20232;-90
2024/02/18 13:21:17;;;;;;;4.30;1.80;;;;;;;;;;5011339;28;20193;-92
2024/02/18 13:24:23;;;;;;;4.53;1.80;;;;;;;;;;5009823;28;20660;-92
2024/02/18 13:27:28;;;;;;;2.40;1.52;;;;;;;;;;5009793;28;20565;-93
2024/02/18 13:30:34;;;;;;;3.58;1.60;;;;;;;;;;5009867;28;20260;-91
2024/02/18 13:33:39;;;;;;;4.25;1.75;;;;;;;;;;5009625;28;20565;-91
2024/02/18 13:36:45;;;;;;;2.80;1.73;;;;;;;;;;5007949;28;20212;-91
2024/02/18 13:39:52;;;;;;;3.63;1.65;;;;;;;;;;5009684;28;20177;-92
2024/02/18 13:42:57;;;;;;;3.15;1.60;;;;;;;;;;5008532;28;20217;-91
2024/02/18 13:46:03;;;;;;;4.88;1.88;;;;;;;;;;5008670;28;20177;-92
2024/02/18 13:49:09;;;;;;;2.50;1.70;;;;;;;;;;5007533;28;20746;-93
2024/02/18 13:52:17;;;;;;;3.72;1.70;;;;;;;;;;5007219;28;20236;-93
2024/02/18 13:55:23;;;;;;;2.38;1.60;;;;;;;;;;5010514;28;20185;-94
2024/02/18 13:58:29;;;;;;;2.60;1.60;;;;;;;;;;5007266;28;20345;-91
2024/02/18 14:01:38;;;;;;;2.42;1.63;;;;;;;;;;5006525;28;20248;-91
2024/02/18 14:04:43;;;;;;;2.10;1.30;;;;;;;;;;5006912;28;20529;-92
2024/02/18 14:07:51;;;;;;;2.53;1.40;;;;;;;;;;5006668;28;20185;-90
2024/02/18 14:10:56;;;;;;;3.38;1.45;;;;;;;;;;5006470;28;20185;-95
2024/02/18 14:14:01;;;;;;;3.25;1.65;;;;;;;;;;5007543;28;20190;-91
2024/02/18 14:17:15;;;;;;;3.85;1.58;;;;;;;;;;5006642;28;20213;-92
2024/02/18 14:20:20;;;;;;;4.18;1.83;;;;;;;;;;5006559;28;20201;-91
2024/02/18 14:23:36;;;;;;;7.30;3.00;;;;;;;;;;5007507;28;20229;-91
2024/02/18 14:26:42;;;;;;;4.55;1.80;;;;;;;;;;5008119;28;20190;-91
2024/02/18 14:29:47;;;;;;;3.38;1.92;;;;;;;;;;5007940;28;20664;-93
2024/02/18 14:32:53;;;;;;;2.72;1.58;;;;;;;;;;5007194;28;20189;-93
2024/02/18 14:35:58;;;;;;;2.25;1.50;;;;;;;;;;5008581;28;20216;-92
2024/02/18 14:39:05;;;;;;;28.33;10.80;;;;;;;;;;4993992;28;20218;-91
2024/02/18 14:42:11;;;;;;;47.20;16.88;;;;;;;;;;4988700;28;20225;-93
2024/02/18 14:45:18;;;;;;;7.93;3.72;;;;;;;;;;4979259;28;20193;-93
2024/02/18 14:48:23;;;;;;;3.97;2.25;;;;;;;;;;4967933;28;20191;-93
2024/02/18 14:51:37;;;;;;;2.25;1.55;;;;;;;;;;4969909;28;20194;-91
2024/02/18 14:54:47;;;;;;;3.45;1.55;;;;;;;;;;4969341;28;20198;-91
2024/02/18 14:57:52;;;;;;;2.72;1.70;;;;;;;;;;4984100;28;20277;-91
2024/02/18 15:00:59;;;;;;;2.70;1.60;;;;;;;;;;4969324;29;20312;-91
2024/02/18 15:04:04;;;;;;;13.80;7.75;;;;;;;;;;4968226;28;20551;-90
2024/02/18 15:07:09;;;;;;;3.53;1.63;;;;;;;;;;4986504;28;20393;-92
2024/02/18 15:10:17;;;;;;;4.15;2.40;;;;;;;;;;4991722;28;20185;-91
2024/02/18 15:13:23;;;;;;;3.67;1.50;;;;;;;;;;4986106;28;20257;-92
2024/02/18 15:16:28;;;;;;;4.03;1.40;;;;;;;;;;4988518;28;20181;-89
2024/02/18 15:19:34;;;;;;;11.00;7.72;;;;;;;;;;4988455;28;20564;-91
2024/02/18 15:22:39;;;;;;;6.68;4.22;;;;;;;;;;4976786;28;20565;-92
2024/02/18 15:25:50;;;;;;;4.55;1.40;;;;;;;;;;4970762;29;20206;-92
2024/02/18 15:28:56;;;;;;;4.35;1.30;;;;;;;;;;4986121;28;20358;-91
2024/02/18 15:32:01;;;;;;;2.42;1.40;;;;;;;;;;4969299;28;20186;-92
2024/02/18 15:35:07;;;;;;;6.82;3.85;;;;;;;;;;4968486;28;20311;-91
2024/02/18 15:38:13;;;;;;;4.53;2.95;;;;;;;;;;4975601;28;20233;-90
2024/02/18 15:41:20;;;;;;;3.13;1.65;;;;;;;;;;4978872;28;20201;-91
2024/02/18 15:44:25;;;;;;;9.65;3.53;;;;;;;;;;4989479;28;20193;-92
2024/02/18 15:47:30;;;;;;;11.57;6.03;;;;;;;;;;4989235;28;20680;-93
2024/02/18 15:50:36;;;;;;;7.60;2.50;;;;;;;;;;4989192;28;20178;-92
2024/02/18 15:53:47;;;;;;;7.20;2.92;;;;;;;;;;4989032;28;20268;-90
2024/02/18 15:56:53;;;;;;;15.80;6.45;;;;;;;;;;4988377;28;20300;-90
2024/02/18 15:59:59;;;;;;;4.13;2.17;;;;;;;;;;4969473;28;20190;-92
2024/02/18 16:03:05;;;;;;;4.80;2.33;;;;;;;;;;4988234;28;20198;-92
2024/02/18 16:06:11;;;;;;;8.10;3.38;;;;;;;;;;4986990;28;20197;-91
2024/02/18 16:09:16;;;;;;;11.15;2.60;;;;;;;;;;4987775;28;20210;-93
2024/02/18 16:12:23;;;;;;;8.48;3.45;;;;;;;;;;4987111;28;20225;-93
2024/02/18 16:15:28;;;;;;;12.88;4.45;;;;;;;;;;4988663;28;20310;-91
2024/02/18 16:18:34;;;;;;;27.65;9.20;;;;;;;;;;4988317;28;20575;-91
2024/02/18 16:21:39;;;;;;;12.30;5.72;;;;;;;;;;4988029;28;20186;-93
2024/02/18 16:24:45;;;;;;;7.13;4.00;;;;;;;;;;4987079;28;20197;-92
2024/02/18 16:27:53;;;;;;;13.25;5.28;;;;;;;;;;4989118;28;20266;-92
2024/02/18 16:30:59;;;;;;;41.42;13.48;;;;;;;;;;4989495;28;20202;-90
2024/02/18 16:34:05;;;;;;;70.03;20.88;;;;;;;;;;4969401;28;20194;-91
2024/02/18 16:37:10;;;;;;;32.45;14.45;;;;;;;;;;4976005;28;20699;-93
2024/02/18 16:40:16;;;;;;;17.45;6.68;;;;;;;;;;4987881;28;20225;-91
2024/02/18 16:43:26;;;;;;;16.75;5.95;;;;;;;;;;4973067;28;20218;-94
2024/02/18 16:46:35;;;;;;;14.80;7.03;;;;;;;;;;4986508;28;20206;-91
2024/02/18 16:49:43;;;;;;;28.38;16.13;;;;;;;;;;4988055;28;20189;-90
2024/02/18 16:52:49;;;;;;;7.07;4.15;;;;;;;;;;4985743;28;20309;-91
2024/02/18 16:55:55;;;;;;;6.05;3.33;;;;;;;;;;4983946;28;20190;-92
2024/02/18 17:02:21;;;;;;;16.75;7.10;;;;;;;;;;4967711;28;20210;-93
2024/02/18 17:05:27;;;;;;;8.95;4.35;;;;;;;;;;4966518;28;20186;-92
2024/02/18 17:08:32;;;;;;;11.55;3.90;;;;;;;;;;4981593;28;20221;-92
2024/02/18 17:11:38;;;;;;;10.65;3.55;;;;;;;;;;4970593;28;20669;-94
2024/02/18 17:14:45;;;;;;;8.68;3.40;;;;;;;;;;4988595;28;20210;-90
2024/02/18 17:17:50;;;;;;;6.55;3.42;;;;;;;;;;4983554;28;20222;-91
2024/02/18 17:20:55;;;;;;;6.85;3.47;;;;;;;;;;4985789;28;20201;-92
2024/02/18 17:24:01;;;;;;;6.43;3.35;;;;;;;;;;4985883;28;20567;-89
2024/02/18 17:27:06;;;;;;;7.20;3.42;;;;;;;;;;4977704;28;20202;-90
2024/02/18 17:30:15;;;;;;;7.25;3.45;;;;;;;;;;4978546;28;20300;-94
2024/02/18 17:33:20;;;;;;;11.50;4.22;;;;;;;;;;4983066;28;20672;-92
2024/02/18 17:36:26;;;;;;;14.05;6.53;;;;;;;;;;4985167;28;20290;-91
2024/02/18 17:39:32;;;;;;;8.23;4.75;;;;;;;;;;4986463;28;20609;-91
2024/02/18 17:42:37;;;;;;;8.05;4.28;;;;;;;;;;4985926;28;20216;-93
2024/02/18 17:45:44;;;;;;;8.98;3.97;;;;;;;;;;4983298;28;20695;-91
2024/02/18 17:48:49;;;;;;;12.73;5.63;;;;;;;;;;4971853;28;20190;-89
2024/02/18 17:51:55;;;;;;;10.88;5.07;;;;;;;;;;4963521;29;20262;-90
2024/02/18 17:55:00;;;;;;;14.63;6.32;;;;;;;;;;4962228;29;20195;-89
2024/02/18 17:58:05;;;;;;;20.60;6.22;;;;;;;;;;4972997;28;20245;-90
2024/02/18 18:01:12;;;;;;;15.30;6.30;;;;;;;;;;4983035;28;20302;-92
2024/02/18 18:04:17;;;;;;;15.85;7.35;;;;;;;;;;4983345;28;20227;-92
2024/02/18 18:07:24;;;;;;;20.25;8.10;;;;;;;;;;4985370;28;20216;-92
2024/02/18 18:10:29;;;;;;;20.30;9.68;;;;;;;;;;4969989;28;20250;-92
2024/02/18 18:13:34;;;;;;;20.42;8.07;;;;;;;;;;4962672;29;20263;-90
2024/02/18 18:16:42;;;;;;;16.67;7.03;;;;;;;;;;4964874;29;20759;-94
2024/02/18 18:19:48;;;;;;;17.15;7.60;;;;;;;;;;4981210;28;20329;-91
2024/02/18 18:22:54;;;;;;;15.30;7.10;;;;;;;;;;4982607;28;20213;-90